createdAt,value
2023-03-28T00:01:03.521Z,99.90
2023-03-28T00:03:35.356Z,99.90
2023-03-28T00:06:05.535Z,99.90
2023-03-28T00:08:32.768Z,99.90
2023-03-28T00:11:21.597Z,99.90
2023-03-28T00:14:00.832Z,99.90
2023-03-28T00:16:37.559Z,99.90
2023-03-28T00:19:14.424Z,99.90
2023-03-28T00:21:46.834Z,99.90
2023-03-28T00:24:17.404Z,99.90
2023-03-28T00:26:45.454Z,99.90
2023-03-28T00:29:20.789Z,99.90
2023-03-28T00:31:49.740Z,99.90
2023-03-28T00:34:17.422Z,99.90
2023-03-28T00:36:44.362Z,99.90
2023-03-28T00:39:11.496Z,99.90
2023-03-28T00:41:42.587Z,99.90
2023-03-28T00:44:53.492Z,99.90
2023-03-28T00:47:26.334Z,99.90
2023-03-28T00:50:00.150Z,99.90
2023-03-28T00:52:30.246Z,99.90
2023-03-28T00:54:59.435Z,99.90
2023-03-28T00:57:28.552Z,99.90
2023-03-28T00:59:55.891Z,99.90
2023-03-28T01:02:22.876Z,99.90
2023-03-28T01:05:00.760Z,99.90
2023-03-28T01:07:35.161Z,99.90
2023-03-28T01:10:05.064Z,99.90
2023-03-28T01:12:33.102Z,99.90
2023-03-28T01:15:02.989Z,99.90
2023-03-28T01:17:30.735Z,99.90
2023-03-28T01:20:35.860Z,99.90
2023-03-28T01:23:46.581Z,99.90
2023-03-28T01:26:47.205Z,99.90
2023-03-28T01:29:38.666Z,99.90
2023-03-28T01:32:43.286Z,99.90
2023-03-28T01:35:53.092Z,99.90
2023-03-28T01:38:34.851Z,99.90
2023-03-28T01:41:19.703Z,99.90
2023-03-28T01:44:18.956Z,99.90
2023-03-28T01:47:21.542Z,99.90
2023-03-28T01:50:25.172Z,99.90
2023-03-28T01:53:24.012Z,99.90
2023-03-28T01:56:10.267Z,99.90
2023-03-28T01:59:02.497Z,99.90
2023-03-28T02:01:45.081Z,99.90
2023-03-28T02:04:21.440Z,99.90
2023-03-28T02:06:51.506Z,99.90
2023-03-28T02:09:24.919Z,99.90
2023-03-28T02:12:03.732Z,99.90
2023-03-28T02:14:39.788Z,99.90
2023-03-28T02:17:15.651Z,99.90
2023-03-28T02:20:08.777Z,99.90
2023-03-28T02:22:45.987Z,99.90
2023-03-28T02:25:13.178Z,99.90
2023-03-28T02:27:44.555Z,99.90
2023-03-28T02:30:12.439Z,99.90
2023-03-28T02:32:40.289Z,99.90
2023-03-28T02:35:08.977Z,99.90
2023-03-28T02:37:54.780Z,99.90
2023-03-28T02:40:52.338Z,99.90
2023-03-28T02:43:45.064Z,99.90
2023-03-28T02:46:29.911Z,99.90
2023-03-28T02:49:49.609Z,99.90
2023-03-28T02:52:52.116Z,99.90
2023-03-28T02:55:59.179Z,99.90
2023-03-28T02:58:55.812Z,99.90
2023-03-28T03:01:29.820Z,99.90
2023-03-28T03:04:00.577Z,99.90
2023-03-28T03:06:27.367Z,99.90
2023-03-28T03:08:54.111Z,99.90
2023-03-28T03:11:21.309Z,99.90
2023-03-28T03:13:48.112Z,99.90
2023-03-28T03:16:14.882Z,99.90
2023-03-28T03:18:41.797Z,99.90
2023-03-28T03:21:08.791Z,99.90
2023-03-28T03:23:36.612Z,99.90
2023-03-28T03:26:03.615Z,99.90
2023-03-28T03:28:30.872Z,99.90
2023-03-28T03:30:57.639Z,99.90
2023-03-28T03:33:24.452Z,99.90
2023-03-28T03:35:51.237Z,99.90
2023-03-28T03:38:17.998Z,99.90
2023-03-28T03:40:44.716Z,99.90
2023-03-28T03:43:11.418Z,99.90
2023-03-28T03:45:40.501Z,99.90
2023-03-28T03:48:07.349Z,99.90
2023-03-28T03:50:34.283Z,99.90
2023-03-28T03:53:00.990Z,99.90
2023-03-28T03:55:27.728Z,99.90
2023-03-28T03:57:54.530Z,99.90
2023-03-28T04:00:21.536Z,99.90
2023-03-28T04:02:48.924Z,99.90
2023-03-28T04:05:15.999Z,99.90
2023-03-28T04:07:42.897Z,99.90
2023-03-28T04:10:10.222Z,99.90
2023-03-28T04:12:36.938Z,99.90
2023-03-28T04:15:06.007Z,99.90
2023-03-28T04:17:35.144Z,99.90
2023-03-28T04:20:13.378Z,99.90
2023-03-28T04:22:45.504Z,99.90
2023-03-28T04:25:13.810Z,99.90
2023-03-28T04:27:46.207Z,99.90
2023-03-28T04:30:15.325Z,99.90
2023-03-28T04:32:42.132Z,99.90
2023-03-28T04:35:09.190Z,99.90
2023-03-28T04:37:37.697Z,99.90
2023-03-28T04:40:11.806Z,99.90
2023-03-28T04:42:39.364Z,99.90
2023-03-28T04:45:08.249Z,99.90
2023-03-28T04:47:37.448Z,99.90
2023-03-28T04:50:04.646Z,99.90
2023-03-28T04:52:31.357Z,99.90
2023-03-28T04:54:58.109Z,99.90
2023-03-28T04:57:24.850Z,99.90
2023-03-28T04:59:52.104Z,99.90
2023-03-28T05:02:18.867Z,99.90
2023-03-28T05:04:45.627Z,99.90
2023-03-28T05:07:12.411Z,99.90
2023-03-28T05:09:39.147Z,99.90
2023-03-28T05:12:06.222Z,99.90
2023-03-28T05:14:33.352Z,99.90
2023-03-28T05:17:00.168Z,99.90
2023-03-28T05:19:26.997Z,99.90
2023-03-28T05:21:54.288Z,99.90
2023-03-28T05:24:21.085Z,99.90
2023-03-28T05:26:47.782Z,99.90
2023-03-28T05:29:14.618Z,99.90
2023-03-28T05:31:41.462Z,99.90
2023-03-28T05:34:08.344Z,99.90
2023-03-28T05:36:35.070Z,99.90
2023-03-28T05:39:01.900Z,99.90
2023-03-28T05:41:28.718Z,99.90
2023-03-28T05:43:55.575Z,99.90
2023-03-28T05:46:22.332Z,99.90
2023-03-28T05:48:49.510Z,99.90
2023-03-28T05:51:16.989Z,99.90
2023-03-28T05:53:43.881Z,99.90
2023-03-28T05:56:10.872Z,99.90
2023-03-28T05:58:37.633Z,99.90
2023-03-28T06:01:05.541Z,99.90
2023-03-28T06:03:32.491Z,99.90
2023-03-28T06:05:59.971Z,99.90
2023-03-28T06:08:27.383Z,99.90
2023-03-28T06:10:54.298Z,99.90
2023-03-28T06:13:21.346Z,99.90
2023-03-28T06:15:48.190Z,99.90
2023-03-28T06:18:14.977Z,99.90
2023-03-28T06:20:41.715Z,99.90
2023-03-28T06:23:08.439Z,99.90
2023-03-28T06:25:35.211Z,99.90
2023-03-28T06:28:01.997Z,99.90
2023-03-28T06:30:28.812Z,99.90
2023-03-28T06:32:55.631Z,99.90
2023-03-28T06:35:22.509Z,99.90
2023-03-28T06:37:49.231Z,99.90
2023-03-28T06:40:16.110Z,99.90
2023-03-28T06:42:43.207Z,99.90
2023-03-28T06:45:10.631Z,99.90
2023-03-28T06:47:40.666Z,99.90
2023-03-28T06:50:07.895Z,99.90
2023-03-28T06:52:34.840Z,99.90
2023-03-28T06:55:01.632Z,99.90
2023-03-28T06:57:28.360Z,99.90
2023-03-28T06:59:55.190Z,99.90
2023-03-28T07:02:21.948Z,99.90
2023-03-28T07:04:48.847Z,99.90
2023-03-28T07:07:15.609Z,99.90
2023-03-28T07:09:42.365Z,99.90
2023-03-28T07:12:09.112Z,99.90
2023-03-28T07:14:36.076Z,99.90
2023-03-28T07:17:02.970Z,99.90
2023-03-28T07:19:29.938Z,99.90
2023-03-28T07:21:56.737Z,99.90
2023-03-28T07:24:23.488Z,99.70
2023-03-28T07:26:51.173Z,99.30
2023-03-28T07:29:18.754Z,98.30
2023-03-28T07:31:45.688Z,97.70
2023-03-28T07:34:12.468Z,98.70
2023-03-28T07:36:39.629Z,98.50
2023-03-28T07:39:06.386Z,97.90
2023-03-28T07:41:33.114Z,96.10
2023-03-28T07:44:00.200Z,95.20
2023-03-28T07:46:27.169Z,95.50
2023-03-28T07:48:56.092Z,95.00
2023-03-28T07:51:22.879Z,95.90
2023-03-28T07:53:49.707Z,94.60
2023-03-28T07:56:16.483Z,93.40
2023-03-28T07:58:43.217Z,93.20
2023-03-28T08:01:12.645Z,92.30
2023-03-28T08:03:41.533Z,92.30
2023-03-28T08:06:20.659Z,92.30
2023-03-28T08:08:55.876Z,92.10
2023-03-28T08:11:22.870Z,91.90
2023-03-28T08:13:49.611Z,91.60
2023-03-28T08:16:16.344Z,90.10
2023-03-28T08:18:43.136Z,90.30
2023-03-28T08:21:10.146Z,89.50
2023-03-28T08:23:36.873Z,87.70
2023-03-28T08:26:06.214Z,88.40
2023-03-28T08:28:35.842Z,88.00
2023-03-28T08:31:09.948Z,87.30
2023-03-28T08:33:36.915Z,85.00
2023-03-28T08:36:03.972Z,85.00
2023-03-28T08:38:33.503Z,80.50
2023-03-28T08:41:28.264Z,81.00
2023-03-28T08:44:27.519Z,83.40
2023-03-28T12:10:37.888Z,81.20
2023-03-28T12:13:45.499Z,47.80
2023-03-28T12:16:38.648Z,45.00
2023-03-28T12:19:14.804Z,43.10
2023-03-28T12:21:46.934Z,43.50
2023-03-28T12:24:43.080Z,45.00
2023-03-28T12:27:30.328Z,42.70
2023-03-28T12:30:20.546Z,42.50
2023-03-28T12:33:04.457Z,45.90
2023-03-28T12:35:52.719Z,43.50
2023-03-28T12:38:29.260Z,45.10
2023-03-28T12:41:04.003Z,45.00
2023-03-28T12:44:04.109Z,42.10
2023-03-28T12:46:45.960Z,38.20
2023-03-28T12:49:45.437Z,38.70
2023-03-28T12:52:28.236Z,39.00
2023-03-28T12:55:02.186Z,37.00
2023-03-28T12:57:46.052Z,38.10
2023-03-28T13:00:25.549Z,39.70
2023-03-28T13:03:07.977Z,40.40
2023-03-28T13:06:04.045Z,41.70
2023-03-28T13:08:50.313Z,42.70
2023-03-28T13:11:51.685Z,41.20
2023-03-28T13:14:36.360Z,40.80
2023-03-28T13:17:21.679Z,40.30
2023-03-28T13:20:15.944Z,40.70
2023-03-28T13:22:49.288Z,38.50
2023-03-28T13:25:26.653Z,37.10
2023-03-28T13:28:01.007Z,38.90
2023-03-28T13:30:32.697Z,39.10
2023-03-28T13:33:19.123Z,37.90
2023-03-28T13:36:12.882Z,38.30
2023-03-28T13:38:58.287Z,37.50
2023-03-28T13:41:55.102Z,39.00
2023-03-28T13:44:38.726Z,36.40
2023-03-28T13:47:06.089Z,36.30
2023-03-28T13:49:44.687Z,34.20
2023-03-28T13:52:25.511Z,36.10
2023-03-28T13:55:00.601Z,34.20
2023-03-28T13:57:28.696Z,31.80
2023-03-28T14:00:06.811Z,32.00
2023-03-28T14:02:41.337Z,32.90
2023-03-28T14:05:33.873Z,32.40
2023-03-28T14:08:15.925Z,31.40
2023-03-28T14:10:46.104Z,32.90
2023-03-28T14:13:24.400Z,33.20
2023-03-28T14:15:53.554Z,30.00
2023-03-28T14:18:36.423Z,29.80
2023-03-28T14:21:06.531Z,28.40
2023-03-28T14:23:48.159Z,28.20
2023-03-28T14:26:23.411Z,27.30
2023-03-28T14:28:51.949Z,26.90
2023-03-28T14:34:32.087Z,27.30
2023-03-28T14:37:17.888Z,25.20
2023-03-28T14:42:17.864Z,24.40
2023-03-28T14:44:51.838Z,23.30
2023-03-28T14:47:32.025Z,24.20
2023-03-28T14:50:01.333Z,24.00
2023-03-28T14:52:40.946Z,22.50
2023-03-28T14:55:16.492Z,23.10
2023-03-28T14:57:45.683Z,24.40
2023-03-28T15:00:22.075Z,26.10
2023-03-28T15:02:51.458Z,26.20
2023-03-28T15:05:22.116Z,26.40
2023-03-28T15:08:02.091Z,26.50
2023-03-28T15:10:30.011Z,27.10
2023-03-28T15:13:16.927Z,27.40
2023-03-28T15:15:47.801Z,30.00
2023-03-28T15:20:51.938Z,30.20
2023-03-28T15:23:56.446Z,30.20
2023-03-28T15:26:54.842Z,31.60
2023-03-28T15:29:25.183Z,32.50
2023-03-28T15:32:02.821Z,32.20
2023-03-28T15:34:29.838Z,31.70
2023-03-28T15:37:06.790Z,32.20
2023-03-28T15:39:36.928Z,32.70
2023-03-28T15:42:18.974Z,32.80
2023-03-28T15:45:24.636Z,32.20
2023-03-28T15:47:55.701Z,32.10
2023-03-28T15:50:35.199Z,31.90
2023-03-28T15:53:14.432Z,33.50
2023-03-28T15:55:42.872Z,34.00
2023-03-28T15:58:20.857Z,35.00
2023-03-28T16:00:54.067Z,34.90
2023-03-28T16:03:21.145Z,35.90
2023-03-28T16:06:09.862Z,36.40
2023-03-28T16:08:45.416Z,35.80
2023-03-28T16:11:23.205Z,36.20
2023-03-28T16:13:51.035Z,37.40
2023-03-28T16:16:28.347Z,38.60
2023-03-28T16:18:55.644Z,39.10
2023-03-28T16:21:22.356Z,40.00
2023-03-28T16:23:49.084Z,40.50
2023-03-28T16:26:16.133Z,39.70
2023-03-28T16:28:42.861Z,39.60
2023-03-28T16:31:14.955Z,39.30
2023-03-28T16:33:41.769Z,38.50
2023-03-28T16:36:12.136Z,38.90
2023-03-28T16:38:41.176Z,39.10
2023-03-28T16:41:08.839Z,39.90
2023-03-28T16:43:37.018Z,39.70
2023-03-28T16:46:04.519Z,39.90
2023-03-28T16:48:32.307Z,40.30
2023-03-28T16:51:04.702Z,40.60
2023-03-28T16:53:33.626Z,40.40
2023-03-28T16:56:01.001Z,40.30
2023-03-28T16:58:29.790Z,40.40
2023-03-28T17:00:56.843Z,40.80
2023-03-28T17:03:24.349Z,40.80
2023-03-28T17:05:51.376Z,41.30
2023-03-28T17:08:18.102Z,41.90
2023-03-28T17:10:44.872Z,42.30
2023-03-28T17:13:11.615Z,42.60
2023-03-28T17:15:38.341Z,42.90
2023-03-28T17:18:05.668Z,43.60
2023-03-28T17:20:32.848Z,43.70
2023-03-28T17:22:59.702Z,44.20
2023-03-28T17:25:26.803Z,44.50
2023-03-28T17:27:53.572Z,45.10
2023-03-28T17:30:20.846Z,45.50
2023-03-28T17:32:47.729Z,45.70
2023-03-28T17:35:14.723Z,46.10
2023-03-28T17:37:41.689Z,46.30
2023-03-28T17:42:37.249Z,47.60
2023-03-28T17:45:04.596Z,48.80
2023-03-28T17:47:31.393Z,48.90
2023-03-28T17:50:00.277Z,49.60
2023-03-28T17:52:32.045Z,50.80
2023-03-28T17:54:59.137Z,51.60
2023-03-28T17:57:27.423Z,53.00
2023-03-28T17:59:54.598Z,54.30
2023-03-28T18:02:21.589Z,54.90
2023-03-28T18:04:48.621Z,56.10
2023-03-28T18:07:17.666Z,57.50
2023-03-28T18:09:45.619Z,58.40
2023-03-28T18:12:13.230Z,59.10
2023-03-28T18:14:40.271Z,59.40
2023-03-28T18:17:07.096Z,60.00
2023-03-28T18:19:33.846Z,60.60
2023-03-28T18:22:00.644Z,62.00
2023-03-28T18:24:27.968Z,62.60
2023-03-28T18:26:55.571Z,63.30
2023-03-28T18:29:22.285Z,63.90
2023-03-28T18:31:49.572Z,64.00
2023-03-28T18:34:16.340Z,63.90
2023-03-28T18:36:43.726Z,63.90
2023-03-28T18:39:10.595Z,65.00
2023-03-28T18:41:37.974Z,65.00
2023-03-28T18:44:05.232Z,66.00
2023-03-28T18:46:32.236Z,66.80
2023-03-28T18:49:00.205Z,67.60
2023-03-28T18:51:27.846Z,68.50
2023-03-28T18:53:54.916Z,69.20
2023-03-28T18:56:21.918Z,69.50
2023-03-28T18:58:50.687Z,70.30
2023-03-28T19:01:18.726Z,71.40
2023-03-28T19:03:47.051Z,72.60
2023-03-28T19:06:15.758Z,73.10
2023-03-28T19:08:44.523Z,75.20
2023-03-28T19:11:14.641Z,75.70
2023-03-28T19:13:42.613Z,76.40
2023-03-28T19:16:15.426Z,77.30
2023-03-28T19:18:45.175Z,78.50
2023-03-28T19:21:13.318Z,79.80
2023-03-28T19:23:41.073Z,80.30
2023-03-28T19:26:10.901Z,81.10
2023-03-28T19:28:39.004Z,82.20
2023-03-28T19:31:10.628Z,82.90
2023-03-28T19:33:38.513Z,83.10
2023-03-28T19:36:06.943Z,84.20
2023-03-28T19:38:36.009Z,85.40
2023-03-28T19:41:09.670Z,85.90
2023-03-28T19:43:37.556Z,86.20
2023-03-28T19:46:08.480Z,87.40
2023-03-28T19:48:35.877Z,88.30
2023-03-28T19:51:03.294Z,88.70
2023-03-28T19:53:30.190Z,89.70
2023-03-28T19:55:59.820Z,90.00
2023-03-28T19:58:28.364Z,90.10
2023-03-28T20:00:56.682Z,90.40
2023-03-28T20:03:23.395Z,90.70
2023-03-28T20:05:50.530Z,91.00
2023-03-28T20:08:18.835Z,91.30
2023-03-28T20:10:50.363Z,91.50
2023-03-28T20:13:17.729Z,91.80
2023-03-28T20:15:46.955Z,91.90
2023-03-28T20:18:21.147Z,92.50
2023-03-28T20:20:55.490Z,92.60
2023-03-28T20:23:25.802Z,92.80
2023-03-28T20:25:53.937Z,93.10
2023-03-28T20:28:24.467Z,93.30
2023-03-28T20:30:53.761Z,93.50
2023-03-28T20:33:21.014Z,93.80
2023-03-28T20:35:57.310Z,93.30
2023-03-28T20:38:27.734Z,93.20
2023-03-28T20:40:54.477Z,93.40
2023-03-28T20:43:21.386Z,93.50
2023-03-28T20:45:53.817Z,93.80
2023-03-28T20:48:34.142Z,93.90
2023-03-28T20:51:05.971Z,93.90
2023-03-28T20:53:33.566Z,94.30
2023-03-28T20:56:03.859Z,94.40
2023-03-28T20:58:32.560Z,94.70
2023-03-28T21:01:02.148Z,95.00
2023-03-28T21:03:46.476Z,95.10
2023-03-28T21:06:26.380Z,95.10
2023-03-28T21:08:55.874Z,95.40
2023-03-28T21:11:26.313Z,95.50
2023-03-28T21:13:53.681Z,95.70
2023-03-28T21:16:21.575Z,95.90
2023-03-28T21:18:49.383Z,95.80
2023-03-28T21:21:18.627Z,95.40
2023-03-28T21:23:46.916Z,95.40
2023-03-28T21:26:21.218Z,95.60
2023-03-28T21:28:48.887Z,95.40
2023-03-28T21:31:24.601Z,95.20
2023-03-28T21:33:53.818Z,95.00
2023-03-28T21:36:20.952Z,94.70
2023-03-28T21:38:48.588Z,94.40
2023-03-28T21:41:16.554Z,94.20
2023-03-28T21:43:44.270Z,93.60
2023-03-28T21:46:12.576Z,92.30
2023-03-28T21:48:39.421Z,91.40
2023-03-28T21:51:06.674Z,90.20
2023-03-28T21:53:37.264Z,89.50
2023-03-28T21:56:06.472Z,89.40
2023-03-28T21:58:33.797Z,88.40
2023-03-28T22:01:02.821Z,86.20
2023-03-28T22:03:30.800Z,84.70
2023-03-28T22:05:57.804Z,84.50
2023-03-28T22:08:24.761Z,84.40
2023-03-28T22:10:55.584Z,83.20
2023-03-28T22:13:23.652Z,82.60
2023-03-28T22:15:52.354Z,81.40
2023-03-28T22:18:19.726Z,80.80
2023-03-28T22:20:52.941Z,80.80
2023-03-28T22:23:22.340Z,79.50
2023-03-28T22:25:49.645Z,79.00
2023-03-28T22:28:18.481Z,79.10
2023-03-28T22:30:45.497Z,78.80
2023-03-28T22:33:13.359Z,78.30
2023-03-28T22:35:40.507Z,78.10
2023-03-28T22:38:07.821Z,78.10
2023-03-28T22:40:34.898Z,78.50
2023-03-28T22:43:02.988Z,77.80
2023-03-28T22:45:29.967Z,76.70
2023-03-28T22:48:02.988Z,76.40
2023-03-28T22:50:30.165Z,76.50
2023-03-28T22:52:57.032Z,76.70
2023-03-28T22:55:24.489Z,76.60
2023-03-28T22:57:52.825Z,76.20
2023-03-28T23:00:22.973Z,75.60
2023-03-28T23:02:51.738Z,75.00
2023-03-28T23:05:20.162Z,75.10
2023-03-28T23:07:47.309Z,75.00
2023-03-28T23:10:19.004Z,75.20
2023-03-28T23:12:47.360Z,75.10
2023-03-28T23:15:15.022Z,75.30
2023-03-28T23:17:42.648Z,75.00
2023-03-28T23:20:14.518Z,75.00
2023-03-28T23:22:44.502Z,75.30
2023-03-28T23:25:14.646Z,75.40
2023-03-28T23:27:42.899Z,75.60
2023-03-28T23:30:12.288Z,75.60
2023-03-28T23:32:39.280Z,75.20
2023-03-28T23:35:07.373Z,75.10
2023-03-28T23:37:37.995Z,75.20
2023-03-28T23:40:06.276Z,75.20
2023-03-28T23:42:32.995Z,75.00
2023-03-28T23:44:59.687Z,75.40
2023-03-28T23:47:26.419Z,75.60
2023-03-28T23:49:53.185Z,75.40
2023-03-28T23:52:20.419Z,75.70
2023-03-28T23:54:47.464Z,75.70
2023-03-28T23:57:14.251Z,75.80
2023-03-28T23:59:41.034Z,76.20
